MSC Corinna — 3FPI7 — position and weather

sailwx.info

Track history (hours):
 
Tides and Currents Weather Stations Pressure Air Temp Water Temp Dewpoint Dewpoint Depression Visibility Wind Speed Wind Dir Waves Ship Positions

MSC Corinna

Last reported at 2018-Jan-07 22:49 UTC. Time now 2018-Jan-20 23:15 UTC.
Position N 35°58' W 005°34'.
Warning: this ship's position is 13 days out of date.

Length 228 m; draft 11.6 m.

Type: Tanker. MMSI: 356696000.

Date/timePositionNaut miles runAvg speedWind from/ knotsBaromVisibWave heightAir tempDewpointWater temp
2018-Jan-07 22:49N 35°58' W 005°34'3 9.6
2018-Jan-07 22:30N 35°59' W 005°31'5 9.3
2018-Jan-07 22:00N 36°00' W 005°25'4 8.6
2018-Jan-07 21:30N 36°04' W 005°23'0 0.9
2018-Jan-07 21:00N 36°04' W 005°23'0 0.9
2018-Jan-07 20:30N 36°05' W 005°23'3 5.2
2018-Jan-07 20:00N 36°08' W 005°22'0 0.3
2018-Jan-07 19:21N 36°08' W 005°22'0 0.0
2018-Jan-07 13:21N 36°07' W 005°22'0 0.0
2018-Jan-07 12:57N 36°07' W 005°22'4 0.6
2018-Jan-07 06:17N 36°05' W 005°19'2 8.0
2018-Jan-07 06:01N 36°05' W 005°16'1 1.3
2018-Jan-07 05:30N 36°04' W 005°16'1 1.0
2018-Jan-07 05:00N 36°03' W 005°16'56411.0
2018-Jan-05 01:42N 37°16' E 006°21'311.3
2018-Jan-05 01:26N 37°16' E 006°25'511.9
2018-Jan-05 01:00N 37°13' E 006°30'611.9
2018-Jan-05 00:28N 37°10' E 006°37'612.1
2018-Jan-04 23:59N 37°07' E 006°44'712.7
2018-Jan-04 23:28N 37°04' E 006°51'612.7
2018-Jan-04 22:59N 36°60' E 006°57'  
Track history (hours):
 
Tides and Currents Weather Stations Pressure Air Temp Water Temp Dewpoint Dewpoint Depression Visibility Wind Speed Wind Dir Waves Ship Positions

MSC Corinna

Last reported at 2018-Jan-07 22:49 UTC. Time now 2018-Jan-20 23:15 UTC.
Position N 35°58' W 005°34'.
Warning: this ship's position is 13 days out of date.

Length 228 m; draft 11.6 m.

Type: Tanker. MMSI: 356696000.

Date/timePositionNaut miles runAvg speedWind from/ knotsBaromVisibWave heightAir tempDewpointWater temp
2018-Jan-07 22:49N 35°58' W 005°34'3 9.6
2018-Jan-07 22:30N 35°59' W 005°31'5 9.3
2018-Jan-07 22:00N 36°00' W 005°25'4 8.6
2018-Jan-07 21:30N 36°04' W 005°23'0 0.9
2018-Jan-07 21:00N 36°04' W 005°23'0 0.9
2018-Jan-07 20:30N 36°05' W 005°23'3 5.2
2018-Jan-07 20:00N 36°08' W 005°22'0 0.3
2018-Jan-07 19:21N 36°08' W 005°22'0 0.0
2018-Jan-07 13:21N 36°07' W 005°22'0 0.0
2018-Jan-07 12:57N 36°07' W 005°22'4 0.6
2018-Jan-07 06:17N 36°05' W 005°19'2 8.0
2018-Jan-07 06:01N 36°05' W 005°16'1 1.3
2018-Jan-07 05:30N 36°04' W 005°16'1 1.0
2018-Jan-07 05:00N 36°03' W 005°16'56411.0
2018-Jan-05 01:42N 37°16' E 006°21'311.3
2018-Jan-05 01:26N 37°16' E 006°25'511.9
2018-Jan-05 01:00N 37°13' E 006°30'611.9
2018-Jan-05 00:28N 37°10' E 006°37'612.1
2018-Jan-04 23:59N 37°07' E 006°44'712.7
2018-Jan-04 23:28N 37°04' E 006°51'612.7
2018-Jan-04 22:59N 36°60' E 006°57'  

Dump ship's entire track history